Time;durP1;ratioP1;P1;durP2;ratioP2;P2;SDS_P1;SDS_P2;PMS_P1;PMS_P2;Temp;Humidity;BMP_temperature;BMP_pressure;BME280_temperature;BME280_humidity;BME280_pressure;Samples;Min_cycle;Max_cycle;Signal;HPM_P1;HPM_P2
2021/05/19 00:00:36;;;;;;;4.87;2.50;;;12.20;99.90;;;;;;5091510;28;20206;-73
2021/05/19 00:03:02;;;;;;;6.23;2.00;;;12.20;99.90;;;;;;5092217;28;20205;-72
2021/05/19 00:05:28;;;;;;;3.03;2.17;;;12.20;99.90;;;;;;5092253;28;20230;-72
2021/05/19 00:07:55;;;;;;;4.63;2.33;;;12.10;99.90;;;;;;5091651;28;20618;-73
2021/05/19 00:10:22;;;;;;;2.93;1.73;;;12.20;99.90;;;;;;5092450;28;20205;-74
2021/05/19 00:12:48;;;;;;;3.10;1.73;;;12.10;99.90;;;;;;5092265;28;20262;-72
2021/05/19 00:15:16;;;;;;;6.70;2.63;;;12.10;99.90;;;;;;5091279;28;20225;-72
2021/05/19 00:17:43;;;;;;;4.40;2.03;;;12.10;99.90;;;;;;5091809;28;20209;-72
2021/05/19 00:20:12;;;;;;;5.57;1.77;;;12.00;99.90;;;;;;5091632;28;20272;-72
2021/05/19 00:22:38;;;;;;;5.03;1.70;;;12.00;99.90;;;;;;5091854;28;20213;-74
2021/05/19 00:25:06;;;;;;;4.27;1.70;;;11.90;99.90;;;;;;5091185;28;20217;-74
2021/05/19 00:27:33;;;;;;;4.17;2.43;;;11.80;99.90;;;;;;5091866;28;20201;-73
2021/05/19 00:29:59;;;;;;;3.63;2.33;;;11.90;99.90;;;;;;5091542;28;20209;-72
2021/05/19 00:32:27;;;;;;;2.60;1.50;;;11.80;99.90;;;;;;5091957;28;20209;-73
2021/05/19 00:34:53;;;;;;;5.90;2.10;;;11.80;99.90;;;;;;5091225;28;20633;-72
2021/05/19 00:37:20;;;;;;;4.30;1.60;;;11.80;99.90;;;;;;5092068;28;20209;-73
2021/05/19 00:39:47;;;;;;;10.43;2.40;;;11.80;99.90;;;;;;5091729;28;20595;-72
2021/05/19 00:42:14;;;;;;;5.37;2.67;;;11.80;99.90;;;;;;5091192;28;20576;-73
2021/05/19 00:44:42;;;;;;;3.93;1.70;;;11.70;99.90;;;;;;5091265;28;20544;-73
2021/05/19 00:47:08;;;;;;;7.07;1.80;;;11.70;99.90;;;;;;5091144;28;20213;-72
2021/05/19 00:49:36;;;;;;;5.70;1.70;;;11.60;99.90;;;;;;5091292;28;20206;-72
2021/05/19 00:52:02;;;;;;;6.33;2.13;;;11.50;99.90;;;;;;5090578;28;20209;-70
2021/05/19 00:54:29;;;;;;;4.43;1.57;;;11.40;99.90;;;;;;5091499;28;20206;-71
2021/05/19 00:56:55;;;;;;;5.97;1.57;;;11.40;99.90;;;;;;5090816;28;20231;-73
2021/05/19 00:59:23;;;;;;;3.87;1.60;;;11.20;99.90;;;;;;5091314;28;20201;-74
2021/05/19 01:01:49;;;;;;;3.73;1.90;;;11.10;99.90;;;;;;5091627;28;20205;-72
2021/05/19 01:04:16;;;;;;;7.23;1.57;;;11.00;99.90;;;;;;5090723;28;20230;-73
2021/05/19 01:06:49;;;;;;;4.97;1.67;;;11.00;99.90;;;;;;5091143;28;20258;-73
2021/05/19 01:12:00;;;;;;;3.90;1.77;;;11.00;99.90;;;;;;5089881;28;20203;-72
2021/05/19 01:14:26;;;;;;;7.67;2.23;;;11.00;99.90;;;;;;5090439;28;20201;-73
2021/05/19 01:16:53;;;;;;;4.47;1.47;;;11.10;99.90;;;;;;5090982;28;20238;-72
2021/05/19 01:19:23;;;;;;;5.07;2.03;;;11.10;99.90;;;;;;5091003;28;20209;-72
2021/05/19 01:21:52;;;;;;;5.03;1.90;;;11.10;99.90;;;;;;5091458;28;20212;-73
2021/05/19 01:24:20;;;;;;;4.73;2.40;;;11.00;99.90;;;;;;5091032;28;20217;-72
2021/05/19 01:26:46;;;;;;;4.87;2.03;;;11.00;99.90;;;;;;5091105;28;20262;-72
2021/05/19 01:29:13;;;;;;;13.40;2.87;;;11.10;99.90;;;;;;5073949;28;20676;-73
2021/05/19 01:31:40;;;;;;;4.10;1.87;;;11.20;99.90;;;;;;5076802;28;20364;-71
2021/05/19 01:34:07;;;;;;;8.47;2.30;;;11.20;99.90;;;;;;5090278;28;20673;-71
2021/05/19 01:36:34;;;;;;;5.00;1.70;;;11.30;99.90;;;;;;5090425;28;20225;-71
2021/05/19 01:39:00;;;;;;;3.43;1.53;;;11.40;99.90;;;;;;5071225;28;20206;-71
2021/05/19 01:41:28;;;;;;;4.33;1.77;;;11.40;99.90;;;;;;5070675;28;20256;-70
2021/05/19 01:43:54;;;;;;;5.60;2.00;;;11.30;99.90;;;;;;5069855;28;20256;-70
2021/05/19 01:46:21;;;;;;;5.73;1.30;;;11.20;99.90;;;;;;5070318;28;20217;-70
2021/05/19 01:48:55;;;;;;;2.50;1.27;;;11.20;99.90;;;;;;5070509;28;20713;-71
2021/05/19 01:51:22;;;;;;;4.50;1.67;;;11.20;99.90;;;;;;5070686;28;20202;-71
2021/05/19 01:53:49;;;;;;;6.10;1.77;;;11.20;99.90;;;;;;5070330;28;20605;-71
2021/05/19 01:56:15;;;;;;;6.30;1.70;;;11.10;99.90;;;;;;5069939;28;20228;-71
2021/05/19 01:58:43;;;;;;;6.00;1.53;;;11.10;99.90;;;;;;5070175;28;20233;-70
2021/05/19 02:01:09;;;;;;;5.00;1.43;;;11.10;99.90;;;;;;5069814;28;20202;-71
2021/05/19 02:03:36;;;;;;;5.70;1.97;;;11.10;99.90;;;;;;5070517;28;20339;-71
2021/05/19 02:06:02;;;;;;;3.53;1.47;;;11.10;99.90;;;;;;5069713;28;20202;-71
2021/05/19 02:08:29;;;;;;;4.27;1.17;;;11.10;99.90;;;;;;5070264;28;20218;-73
2021/05/19 02:10:55;;;;;;;4.43;1.73;;;11.10;99.90;;;;;;5069535;28;20202;-72
2021/05/19 02:13:22;;;;;;;10.07;1.93;;;11.10;99.90;;;;;;5069873;28;20202;-71
2021/05/19 02:15:50;;;;;;;5.37;1.27;;;11.10;99.90;;;;;;5070637;28;20234;-72
2021/05/19 02:18:16;;;;;;;4.23;1.40;;;11.10;99.90;;;;;;5069724;28;20624;-73
2021/05/19 02:20:43;;;;;;;4.63;2.00;;;11.10;99.90;;;;;;5070349;28;20211;-72
2021/05/19 02:23:09;;;;;;;5.23;1.43;;;11.00;99.90;;;;;;5072476;28;20202;-72
2021/05/19 02:25:36;;;;;;;3.30;1.87;;;11.00;99.90;;;;;;5073443;28;20221;-72
2021/05/19 02:28:03;;;;;;;2.80;1.00;;;11.00;99.90;;;;;;5073177;28;20723;-71
2021/05/19 02:30:31;;;;;;;5.77;0.87;;;10.90;99.90;;;;;;5074102;28;20228;-71
2021/05/19 02:32:58;;;;;;;3.80;1.60;;;10.90;99.90;;;;;;5073409;28;20210;-72
2021/05/19 02:35:25;;;;;;;2.93;1.30;;;10.90;99.90;;;;;;5073864;28;20218;-72
2021/05/19 02:37:51;;;;;;;5.60;1.20;;;11.00;99.90;;;;;;5073798;28;20588;-73
2021/05/19 02:40:18;;;;;;;2.80;1.30;;;11.00;99.90;;;;;;5073235;28;20564;-73
2021/05/19 02:42:45;;;;;;;5.80;1.10;;;10.80;99.90;;;;;;5073809;28;20213;-72
2021/05/19 02:45:13;;;;;;;2.97;1.30;;;10.90;99.90;;;;;;5073087;28;20206;-72
2021/05/19 02:47:39;;;;;;;3.87;1.93;;;10.80;99.90;;;;;;5073390;28;20700;-73
2021/05/19 02:50:07;;;;;;;2.53;1.03;;;10.70;99.90;;;;;;5073017;28;20210;-72
2021/05/19 02:52:34;;;;;;;7.00;1.37;;;10.70;99.90;;;;;;5073624;28;20199;-71
2021/05/19 02:55:00;;;;;;;3.03;1.67;;;10.70;99.90;;;;;;5072551;28;20234;-72
2021/05/19 02:57:27;;;;;;;5.37;1.60;;;10.70;99.90;;;;;;5073289;28;20205;-73
2021/05/19 02:59:54;;;;;;;5.30;1.47;;;10.70;99.90;;;;;;5073299;28;20206;-72
2021/05/19 03:02:20;;;;;;;3.87;1.20;;;10.60;99.90;;;;;;5073358;28;20205;-72
2021/05/19 03:04:47;;;;;;;5.87;1.30;;;10.60;99.90;;;;;;5073428;28;20220;-71
2021/05/19 03:07:14;;;;;;;6.13;1.53;;;10.60;99.90;;;;;;5072656;28;20209;-72
2021/05/19 03:09:40;;;;;;;8.97;1.53;;;10.60;99.90;;;;;;5072890;28;20206;-72
2021/05/19 03:12:08;;;;;;;3.20;1.17;;;10.60;99.90;;;;;;5072911;28;20213;-72
2021/05/19 03:14:34;;;;;;;5.13;1.97;;;10.50;99.90;;;;;;5072982;28;20206;-71
2021/05/19 03:17:02;;;;;;;5.17;1.37;;;10.60;99.90;;;;;;5072715;28;20314;-72
2021/05/19 03:19:29;;;;;;;6.40;1.87;;;10.60;99.90;;;;;;5072789;28;20206;-72
2021/05/19 03:21:55;;;;;;;6.80;1.30;;;10.60;99.90;;;;;;5072654;28;20206;-71
2021/05/19 03:24:23;;;;;;;7.90;1.90;;;10.60;99.90;;;;;;5072358;28;20210;-73
2021/05/19 03:26:49;;;;;;;5.73;1.40;;;10.60;99.90;;;;;;5073085;28;20206;-72
2021/05/19 03:29:16;;;;;;;4.63;1.50;;;10.60;99.90;;;;;;5070497;28;20202;-72
2021/05/19 03:31:42;;;;;;;8.03;1.93;;;10.70;99.90;;;;;;5059700;28;20210;-72
2021/05/19 03:34:09;;;;;;;5.03;1.50;;;10.70;99.90;;;;;;5071767;28;20237;-73
2021/05/19 03:36:35;;;;;;;4.47;1.47;;;10.60;99.90;;;;;;5072307;28;20229;-72
2021/05/19 03:39:03;;;;;;;6.53;2.77;;;10.60;99.90;;;;;;5072178;28;20210;-73
2021/05/19 03:41:30;;;;;;;5.20;1.70;;;10.70;99.90;;;;;;5072249;28;20252;-72
2021/05/19 03:43:56;;;;;;;3.43;2.13;;;10.70;99.90;;;;;;5072212;28;20210;-71
2021/05/19 03:46:23;;;;;;;3.27;1.37;;;10.60;99.90;;;;;;5072372;28;20206;-71
2021/05/19 03:48:53;;;;;;;6.90;1.60;;;10.60;99.90;;;;;;5072489;28;20214;-72
2021/05/19 03:51:20;;;;;;;3.87;1.73;;;10.50;99.90;;;;;;5072576;28;20245;-72
2021/05/19 03:53:46;;;;;;;4.87;1.60;;;10.60;99.90;;;;;;5071763;28;20727;-73
2021/05/19 03:56:14;;;;;;;3.50;1.87;;;10.70;99.90;;;;;;5071958;28;20233;-72
2021/05/19 03:58:41;;;;;;;6.37;1.47;;;10.50;99.90;;;;;;5071949;28;20674;-71
2021/05/19 04:01:08;;;;;;;2.90;1.43;;;10.50;99.90;;;;;;5072474;28;20213;-72
2021/05/19 04:03:34;;;;;;;1.30;1.00;;;10.50;99.90;;;;;;5065439;28;20206;-73
2021/05/19 04:06:02;;;;;;;7.23;1.70;;;10.50;99.90;;;;;;5068443;28;20268;-72
2021/05/19 04:08:33;;;;;;;7.10;2.13;;;10.60;99.90;;;;;;5071801;28;20301;-72
2021/05/19 04:11:00;;;;;;;4.67;1.40;;;10.50;99.90;;;;;;5071581;28;20579;-73
2021/05/19 04:13:27;;;;;;;3.83;2.57;;;10.40;99.90;;;;;;5072201;28;20210;-72
2021/05/19 04:15:54;;;;;;;1.83;1.23;;;10.50;99.90;;;;;;5071877;28;20229;-72
2021/05/19 04:18:21;;;;;;;10.40;1.67;;;10.50;99.90;;;;;;5071317;28;20559;-71
2021/05/19 04:20:48;;;;;;;4.97;1.03;;;10.50;99.90;;;;;;5071739;28;20211;-71
2021/05/19 04:23:15;;;;;;;5.13;2.20;;;10.60;99.90;;;;;;5071341;28;20237;-71
2021/05/19 04:25:41;;;;;;;2.73;1.10;;;10.60;99.90;;;;;;5071439;28;20222;-72
2021/05/19 04:28:08;;;;;;;2.70;1.10;;;10.60;99.90;;;;;;5070983;28;20199;-72
2021/05/19 04:30:34;;;;;;;6.17;2.03;;;10.60;99.90;;;;;;5071692;28;20263;-71
2021/05/19 04:33:02;;;;;;;4.03;1.37;;;10.50;99.90;;;;;;5070819;28;20206;-71
2021/05/19 04:35:29;;;;;;;7.20;1.67;;;10.50;99.90;;;;;;5071785;28;20229;-72
2021/05/19 04:37:55;;;;;;;2.10;1.13;;;10.50;99.90;;;;;;5070952;28;20218;-72
2021/05/19 04:40:22;;;;;;;3.43;1.20;;;10.60;99.90;;;;;;5071877;28;20693;-71
2021/05/19 04:42:48;;;;;;;5.53;1.53;;;10.60;99.90;;;;;;5071465;28;20613;-71
2021/05/19 04:45:15;;;;;;;5.10;1.33;;;10.60;99.90;;;;;;5070223;28;20591;-73
2021/05/19 04:47:42;;;;;;;1.93;0.90;;;10.70;99.90;;;;;;5071182;28;20587;-71
2021/05/19 04:50:11;;;;;;;4.87;1.73;;;10.60;99.90;;;;;;5070822;28;20207;-71
2021/05/19 04:52:38;;;;;;;3.17;1.20;;;10.50;99.90;;;;;;5071237;28;20248;-72
2021/05/19 04:55:06;;;;;;;4.53;1.93;;;10.60;99.90;;;;;;5059273;28;20206;-71
2021/05/19 04:57:33;;;;;;;3.47;1.50;;;10.70;99.90;;;;;;5070229;28;20209;-71
2021/05/19 04:59:59;;;;;;;4.07;1.40;;;10.80;99.90;;;;;;5070547;28;20206;-72
2021/05/19 05:02:26;;;;;;;2.60;1.73;;;10.80;99.90;;;;;;5070905;28;20206;-71
2021/05/19 05:04:53;;;;;;;10.00;2.10;;;10.90;99.90;;;;;;5070934;28;20202;-70
2021/05/19 05:07:21;;;;;;;6.90;1.43;;;10.90;99.90;;;;;;5071213;28;20289;-71
2021/05/19 05:09:48;;;;;;;2.77;1.50;;;10.90;99.90;;;;;;5071050;28;20214;-73
2021/05/19 05:12:15;;;;;;;4.13;2.00;;;11.00;99.90;;;;;;5070313;28;20206;-71
2021/05/19 05:14:41;;;;;;;2.63;1.20;;;10.90;99.90;;;;;;5070846;28;20628;-71
2021/05/19 05:17:08;;;;;;;2.30;1.30;;;10.90;99.90;;;;;;5070450;28;20230;-72
2021/05/19 05:19:35;;;;;;;1.97;1.03;;;11.00;99.90;;;;;;5070262;28;20198;-71
2021/05/19 05:22:01;;;;;;;4.37;1.03;;;10.90;99.90;;;;;;5070584;28;20210;-72
2021/05/19 05:24:29;;;;;;;3.57;1.33;;;10.80;99.90;;;;;;5070253;28;20563;-71
2021/05/19 05:26:56;;;;;;;3.00;1.07;;;10.90;99.90;;;;;;5070553;28;20241;-71
2021/05/19 05:29:22;;;;;;;4.03;1.30;;;10.90;99.90;;;;;;5070515;28;20208;-71
2021/05/19 05:31:49;;;;;;;5.67;1.40;;;11.10;99.90;;;;;;5067893;28;20743;-71
2021/05/19 05:34:15;;;;;;;2.13;1.10;;;11.10;99.90;;;;;;5073465;28;20586;-71
2021/05/19 05:36:42;;;;;;;4.77;1.63;;;11.10;99.90;;;;;;5076449;28;20253;-70
2021/05/19 05:39:09;;;;;;;3.80;1.10;;;11.10;99.90;;;;;;5073562;28;20210;-72
2021/05/19 05:41:36;;;;;;;4.00;1.40;;;11.20;99.90;;;;;;5076411;28;20208;-70
2021/05/19 05:44:03;;;;;;;3.73;1.37;;;11.30;99.90;;;;;;5073575;28;20297;-71
2021/05/19 05:46:30;;;;;;;3.70;1.47;;;11.30;99.90;;;;;;5076053;28;20259;-71
2021/05/19 05:48:58;;;;;;;6.13;1.70;;;11.20;99.90;;;;;;5070254;28;20202;-72
2021/05/19 05:51:24;;;;;;;6.33;1.33;;;11.30;99.90;;;;;;5070179;28;20206;-72
2021/05/19 05:53:51;;;;;;;4.17;1.53;;;11.30;99.90;;;;;;5070386;28;20206;-72
2021/05/19 05:56:17;;;;;;;1.93;1.40;;;11.30;99.90;;;;;;5070291;28;20229;-70
2021/05/19 05:58:45;;;;;;;5.63;1.80;;;11.40;99.90;;;;;;5074076;28;20206;-72
2021/05/19 06:01:11;;;;;;;3.03;1.73;;;11.60;99.90;;;;;;5074182;28;20695;-72
2021/05/19 06:03:38;;;;;;;2.00;1.33;;;11.60;99.90;;;;;;5074437;28;20206;-71
2021/05/19 06:06:05;;;;;;;5.20;1.80;;;11.60;99.90;;;;;;5073991;28;20240;-71
2021/05/19 06:08:31;;;;;;;5.37;2.80;;;11.80;99.90;;;;;;5074392;28;20210;-70
2021/05/19 06:10:58;;;;;;;1.93;1.30;;;11.90;99.90;;;;;;5073647;28;20209;-71
2021/05/19 06:13:25;;;;;;;4.27;1.43;;;12.00;99.90;;;;;;5074516;28;20214;-72
2021/05/19 06:15:52;;;;;;;4.57;1.67;;;12.10;99.90;;;;;;5071873;28;20222;-73
2021/05/19 06:18:19;;;;;;;3.90;1.10;;;12.20;99.90;;;;;;5060697;28;20612;-76
2021/05/19 06:20:45;;;;;;;3.93;1.77;;;12.40;99.90;;;;;;5073825;28;20574;-74
2021/05/19 06:23:12;;;;;;;3.67;1.87;;;12.40;99.90;;;;;;5073294;28;20588;-73
2021/05/19 06:25:39;;;;;;;5.37;1.77;;;12.40;99.90;;;;;;5068073;28;20210;-73
2021/05/19 06:28:05;;;;;;;1.70;1.23;;;12.50;99.90;;;;;;5065649;28;20206;-73
2021/05/19 06:30:32;;;;;;;2.57;1.63;;;12.70;99.90;;;;;;5072641;28;20206;-72
2021/05/19 06:32:59;;;;;;;4.17;1.83;;;12.70;99.90;;;;;;5071354;28;20202;-72
2021/05/19 06:35:26;;;;;;;3.60;1.33;;;12.80;99.90;;;;;;5073136;28;20241;-72
2021/05/19 06:37:54;;;;;;;2.27;1.17;;;12.90;99.90;;;;;;5073580;28;20207;-72
2021/05/19 06:40:20;;;;;;;2.83;1.53;;;12.80;99.90;;;;;;5074092;28;20202;-73
2021/05/19 06:42:47;;;;;;;4.50;1.70;;;12.90;99.90;;;;;;5073886;28;20217;-72
2021/05/19 06:45:14;;;;;;;3.80;1.10;;;12.80;99.90;;;;;;5059316;28;20777;-72
2021/05/19 06:47:41;;;;;;;5.00;1.80;;;12.60;99.90;;;;;;5073382;28;20229;-72
2021/05/19 06:50:10;;;;;;;6.00;1.93;;;12.50;99.90;;;;;;5073065;28;20206;-72
2021/05/19 06:52:36;;;;;;;6.00;1.40;;;12.30;99.90;;;;;;5073551;28;20557;-73
2021/05/19 06:55:06;;;;;;;5.43;1.73;;;12.10;99.90;;;;;;5073326;28;20202;-73
2021/05/19 06:57:34;;;;;;;5.07;1.33;;;12.40;99.90;;;;;;5073117;28;20206;-73
2021/05/19 07:00:02;;;;;;;2.33;1.50;;;12.50;99.90;;;;;;5073101;28;20708;-72
2021/05/19 07:02:29;;;;;;;3.27;1.33;;;13.00;99.90;;;;;;5072996;28;20206;-72
2021/05/19 07:04:55;;;;;;;5.07;1.57;;;13.30;99.90;;;;;;5068378;28;20210;-72
2021/05/19 07:07:23;;;;;;;2.30;1.50;;;13.90;99.90;;;;;;5058890;28;20623;-72
2021/05/19 07:09:50;;;;;;;3.10;1.27;;;14.00;99.90;;;;;;5072611;28;20210;-72
2021/05/19 07:12:17;;;;;;;6.57;1.63;;;13.70;99.90;;;;;;5067383;28;20263;-74
2021/05/19 07:14:49;;;;;;;5.37;1.63;;;13.50;99.90;;;;;;5073179;28;20206;-72
2021/05/19 07:17:16;;;;;;;4.65;1.38;;;13.30;99.90;;;;;;5072011;28;20233;-73
2021/05/19 07:19:43;;;;;;;3.25;1.65;;;13.50;99.90;;;;;;5058795;28;20202;-72
2021/05/19 07:22:09;;;;;;;5.20;1.48;;;14.00;99.90;;;;;;5072515;28;20209;-73
2021/05/19 07:24:37;;;;;;;3.80;1.80;;;13.90;99.90;;;;;;5072594;28;20217;-72
2021/05/19 07:27:03;;;;;;;3.20;1.05;;;13.90;99.90;;;;;;5072712;28;20206;-72
2021/05/19 07:29:30;;;;;;;5.03;1.10;;;14.30;99.90;;;;;;5072574;28;20217;-72
2021/05/19 07:31:58;;;;;;;5.22;1.70;;;14.70;99.90;;;;;;5072063;28;20631;-72
2021/05/19 07:34:24;;;;;;;2.45;1.08;;;15.40;99.90;;;;;;5072234;28;20201;-74
2021/05/19 07:36:51;;;;;;;4.57;1.25;;;14.50;99.90;;;;;;5072772;28;20240;-73
2021/05/19 07:39:18;;;;;;;3.80;1.02;;;14.30;99.90;;;;;;5063952;28;20229;-75
2021/05/19 07:41:45;;;;;;;5.63;0.70;;;13.90;99.90;;;;;;5071703;28;20281;-73
2021/05/19 07:44:12;;;;;;;5.53;1.27;;;13.70;99.90;;;;;;5068761;28;20734;-72
2021/05/19 07:46:39;;;;;;;4.47;1.58;;;14.10;99.90;;;;;;5060392;28;20732;-72
2021/05/19 07:49:06;;;;;;;5.60;1.13;;;14.70;99.90;;;;;;5072102;28;20210;-72
2021/05/19 07:51:33;;;;;;;3.55;0.80;;;14.90;99.90;;;;;;5072127;28;20260;-72
2021/05/19 07:54:00;;;;;;;5.43;1.17;;;15.00;99.90;;;;;;5071992;28;20209;-72
2021/05/19 07:56:33;;;;;;;4.43;1.25;;;15.00;99.90;;;;;;5071061;28;20226;-72
2021/05/19 07:59:05;;;;;;;2.03;0.90;;;14.40;99.90;;;;;;5071709;28;20214;-71
2021/05/19 08:01:54;;;;;;;2.97;1.80;;;15.90;99.90;;;;;;5072178;28;20220;-72
2021/05/19 08:04:20;;;;;;;2.47;1.15;;;17.50;99.90;;;;;;5072171;28;20201;-73
2021/05/19 08:06:47;;;;;;;2.70;1.52;;;15.80;99.90;;;;;;5072372;28;20682;-73
2021/05/19 08:09:13;;;;;;;2.72;1.00;;;17.40;99.90;;;;;;5071660;28;20206;-74
2021/05/19 08:11:40;;;;;;;6.30;2.08;;;18.50;99.90;;;;;;5072027;28;20198;-73
2021/05/19 08:14:08;;;;;;;5.38;1.35;;;16.30;99.90;;;;;;5071079;28;20685;-73
2021/05/19 08:16:34;;;;;;;1.83;0.68;;;15.80;99.90;;;;;;5072049;28;20234;-72
2021/05/19 08:19:00;;;;;;;2.08;1.23;;;15.60;99.90;;;;;;5071399;28;20207;-72
2021/05/19 08:21:27;;;;;;;1.45;0.80;;;15.70;99.90;;;;;;5071605;28;20224;-72
2021/05/19 08:23:53;;;;;;;3.40;1.00;;;15.60;99.90;;;;;;5070974;28;20206;-72
2021/05/19 08:26:20;;;;;;;2.92;1.17;;;15.80;99.90;;;;;;5071636;28;20573;-72
2021/05/19 08:28:47;;;;;;;2.92;1.08;;;15.70;99.90;;;;;;5071834;28;20218;-72
2021/05/19 08:31:15;;;;;;;5.28;1.15;;;16.10;99.90;;;;;;5071176;28;20986;-72
2021/05/19 08:33:42;;;;;;;1.38;0.77;;;15.80;99.90;;;;;;5071857;28;20206;-72
2021/05/19 08:36:09;;;;;;;2.17;0.80;;;15.50;99.90;;;;;;5071083;28;20226;-71
2021/05/19 08:38:38;;;;;;;1.67;0.70;;;15.60;99.90;;;;;;5071398;28;20552;-71
2021/05/19 08:41:05;;;;;;;2.60;0.90;;;15.90;99.90;;;;;;5070927;28;20214;-72
2021/05/19 08:43:31;;;;;;;1.77;0.70;;;16.00;99.90;;;;;;5071231;28;20206;-72
2021/05/19 08:45:58;;;;;;;2.95;0.98;;;16.10;99.90;;;;;;5071224;28;20210;-71
2021/05/19 08:48:26;;;;;;;5.93;1.60;;;15.50;99.90;;;;;;5070878;28;20214;-71
2021/05/19 08:50:53;;;;;;;10.48;9.10;;;15.00;99.90;;;;;;5071248;28;20202;-73
2021/05/19 08:53:21;;;;;;;2.72;1.70;;;15.20;99.90;;;;;;5071314;28;20795;-72
2021/05/19 08:55:47;;;;;;;2.33;1.75;;;15.60;99.90;;;;;;5071332;28;20287;-73
2021/05/19 08:58:14;;;;;;;1.38;1.25;;;17.60;99.90;;;;;;5070763;28;20210;-72
2021/05/19 09:00:41;;;;;;;1.75;1.20;;;17.20;99.90;;;;;;5070867;28;20202;-72
2021/05/19 09:03:09;;;;;;;3.30;1.25;;;16.30;99.90;;;;;;5070905;28;20229;-72
2021/05/19 09:05:38;;;;;;;3.13;1.20;;;15.90;99.90;;;;;;5070726;28;20212;-72
2021/05/19 09:08:06;;;;;;;2.17;0.90;;;16.60;99.90;;;;;;5070583;28;20206;-72
2021/05/19 09:10:33;;;;;;;2.15;0.75;;;17.90;99.90;;;;;;5071002;28;20210;-73
2021/05/19 09:12:59;;;;;;;2.80;0.98;;;18.30;99.90;;;;;;5070518;28;20589;-71
2021/05/19 09:15:26;;;;;;;2.65;1.27;;;17.50;99.90;;;;;;5071017;28;20681;-71
2021/05/19 09:17:57;;;;;;;3.20;0.80;;;16.80;99.90;;;;;;5070783;28;20206;-72
2021/05/19 09:20:23;;;;;;;1.92;1.20;;;16.00;99.90;;;;;;5070718;28;20665;-72
2021/05/19 09:23:03;;;;;;;1.55;0.82;;;15.90;99.90;;;;;;5070777;28;20692;-72
2021/05/19 09:25:31;;;;;;;3.33;1.75;;;16.30;99.90;;;;;;5070615;28;20217;-73
2021/05/19 09:27:59;;;;;;;5.97;2.08;;;16.20;99.90;;;;;;5069775;28;20622;-72
2021/05/19 09:30:37;;;;;;;2.58;1.63;;;15.90;99.90;;;;;;5070755;28;20235;-73
2021/05/19 09:33:16;;;;;;;4.18;1.88;;;16.90;99.90;;;;;;5069271;28;20271;-72
2021/05/19 09:35:43;;;;;;;4.47;1.90;;;18.30;99.90;;;;;;5070379;28;20705;-72
2021/05/19 09:38:26;;;;;;;1.35;1.15;;;18.00;99.90;;;;;;5070044;28;20209;-73
2021/05/19 09:41:17;;;;;;;3.10;0.88;;;17.00;99.90;;;;;;5070316;28;20297;-72
2021/05/19 09:43:44;;;;;;;3.45;1.33;;;16.20;99.90;;;;;;5058127;28;20587;-73
2021/05/19 09:46:17;;;;;;;3.70;1.00;;;16.30;99.90;;;;;;5070353;28;20252;-72
2021/05/19 09:48:44;;;;;;;0.65;0.65;;;16.90;99.90;;;;;;5070156;28;20685;-72
2021/05/19 09:51:12;;;;;;;1.95;0.80;;;16.80;99.90;;;;;;5070337;28;20572;-72
2021/05/19 09:53:39;;;;;;;1.52;0.90;;;17.60;99.90;;;;;;5070191;28;20209;-72
2021/05/19 09:56:07;;;;;;;3.53;1.02;;;16.90;99.90;;;;;;5069720;28;20237;-72
2021/05/19 09:58:36;;;;;;;2.78;1.13;;;16.40;99.90;;;;;;5070567;28;20225;-72
2021/05/19 10:01:04;;;;;;;1.45;0.82;;;17.70;99.90;;;;;;5056323;28;20689;-72
2021/05/19 10:03:34;;;;;;;2.75;0.80;;;18.20;99.90;;;;;;5070659;28;20206;-73
2021/05/19 10:06:06;;;;;;;2.97;1.00;;;17.90;99.90;;;;;;5069814;28;20293;-72
2021/05/19 10:08:33;;;;;;;2.45;0.98;;;17.20;99.90;;;;;;5070371;28;20205;-72
2021/05/19 10:11:01;;;;;;;2.58;1.50;;;17.20;99.90;;;;;;5069698;28;20202;-73
2021/05/19 10:13:30;;;;;;;3.78;2.38;;;18.50;99.90;;;;;;5070358;28;20218;-72
2021/05/19 10:15:58;;;;;;;3.78;1.00;;;19.20;99.90;;;;;;5069664;28;20291;-72
2021/05/19 10:18:29;;;;;;;2.80;1.40;;;18.90;99.90;;;;;;5070164;28;20747;-73
2021/05/19 10:20:56;;;;;;;3.00;1.23;;;18.00;99.90;;;;;;5069667;28;20202;-73
2021/05/19 10:23:26;;;;;;;1.00;0.73;;;16.50;99.90;;;;;;5070236;28;20681;-72
2021/05/19 10:26:06;;;;;;;3.20;1.20;;;16.10;99.90;;;;;;5069598;28;20218;-72
2021/05/19 10:28:44;;;;;;;2.05;1.10;;;16.20;99.90;;;;;;5070322;28;20209;-72
2021/05/19 10:31:29;;;;;;;2.50;0.98;;;18.00;99.90;;;;;;5069412;28;20206;-75
2021/05/19 10:33:57;;;;;;;1.08;0.93;;;18.60;99.90;;;;;;5069976;28;20221;-74
2021/05/19 10:36:35;;;;;;;3.25;0.90;;;18.10;99.90;;;;;;5069729;28;20225;-72
2021/05/19 10:39:21;;;;;;;3.95;2.00;;;18.20;99.90;;;;;;5069556;28;20292;-73
2021/05/19 10:41:49;;;;;;;1.20;0.65;;;17.80;99.90;;;;;;5070229;28;20202;-73
2021/05/19 10:44:16;;;;;;;2.17;1.42;;;17.20;99.90;;;;;;5072746;28;20213;-75
2021/05/19 10:47:02;;;;;;;1.92;1.73;;;17.30;99.90;;;;;;5073407;28;20579;-72
2021/05/19 10:50:06;;;;;;;2.75;1.42;;;17.70;99.90;;;;;;5073141;28;20293;-73
2021/05/19 10:57:11;;;;;;;2.50;1.80;;;18.10;99.90;;;;;;5017923;28;20221;-74
2021/05/19 10:58:33;;;;;;;4.40;1.17;;;18.50;99.90;;;;;;5073364;28;20213;-72
2021/05/19 11:01:00;;;;;;;1.15;1.02;;;17.50;99.90;;;;;;5072688;28;20210;-73
2021/05/19 11:03:26;;;;;;;2.47;1.38;;;16.60;99.90;;;;;;5073688;28;20210;-72
2021/05/19 11:06:08;;;;;;;1.20;0.90;;;16.60;99.90;;;;;;5073097;28;20213;-73
2021/05/19 11:08:35;;;;;;;5.40;1.15;;;17.20;99.90;;;;;;5073097;28;20202;-74
2021/05/19 11:11:27;;;;;;;2.17;1.65;;;17.10;99.90;;;;;;5072790;28;20691;-74
2021/05/19 11:14:02;;;;;;;3.97;1.17;;;17.50;99.90;;;;;;5070933;28;20205;-74
2021/05/19 11:17:12;;;;;;;2.05;1.23;;;17.80;99.90;;;;;;5060495;28;20236;-73
2021/05/19 11:19:39;;;;;;;5.30;0.90;;;17.90;99.90;;;;;;5030803;28;20203;-75
2021/05/19 11:22:08;;;;;;;3.65;0.82;;;17.50;99.90;;;;;;5066218;28;20206;-74
2021/05/19 11:24:58;;;;;;;1.33;0.82;;;17.80;99.90;;;;;;5072601;28;20214;-73
2021/05/19 11:27:26;;;;;;;1.38;0.90;;;18.10;99.90;;;;;;5072969;28;20263;-72
2021/05/19 11:29:54;;;;;;;0.68;0.60;;;17.90;99.90;;;;;;5072780;28;20210;-74
2021/05/19 11:32:23;;;;;;;1.42;0.60;;;18.10;99.90;;;;;;5073330;28;20213;-73
2021/05/19 11:34:51;;;;;;;1.52;1.08;;;18.10;99.90;;;;;;5072723;28;20637;-74
2021/05/19 11:37:19;;;;;;;1.42;0.68;;;18.10;99.90;;;;;;5072417;28;20244;-73
2021/05/19 11:39:50;;;;;;;1.48;0.80;;;18.10;99.90;;;;;;5072382;28;20686;-75
2021/05/19 11:42:23;;;;;;;1.05;0.73;;;18.40;99.90;;;;;;5072378;28;20213;-75
2021/05/19 11:44:54;;;;;;;1.48;0.70;;;18.10;99.90;;;;;;5072772;28;20217;-75
2021/05/19 11:47:36;;;;;;;1.60;0.70;;;18.40;99.90;;;;;;5072918;28;20198;-72
2021/05/19 11:50:08;;;;;;;1.17;0.70;;;19.10;99.90;;;;;;5065609;28;20620;-72
2021/05/19 11:52:43;;;;;;;2.90;1.27;;;18.80;99.90;;;;;;5058171;28;20688;-73
2021/05/19 11:55:32;;;;;;;4.22;1.75;;;18.20;99.90;;;;;;5070204;28;20210;-73
2021/05/19 11:58:13;;;;;;;1.42;1.00;;;17.70;99.90;;;;;;5060581;28;20226;-74
2021/05/19 12:00:42;;;;;;;2.25;0.90;;;17.80;99.90;;;;;;5071993;28;20574;-74
2021/05/19 12:03:11;;;;;;;1.80;1.58;;;17.90;99.90;;;;;;5071915;28;20214;-73
2021/05/19 12:05:46;;;;;;;1.40;0.60;;;17.70;99.90;;;;;;5071839;28;20244;-74
2021/05/19 12:08:13;;;;;;;2.13;0.70;;;17.80;99.90;;;;;;5071775;28;20251;-73
2021/05/19 12:10:41;;;;;;;1.10;0.50;;;18.20;99.90;;;;;;5072165;28;20656;-72
2021/05/19 12:13:08;;;;;;;0.63;0.50;;;18.80;99.90;;;;;;5071514;28;20301;-73
2021/05/19 12:15:36;;;;;;;0.95;0.60;;;19.40;99.90;;;;;;5071754;28;20206;-73
2021/05/19 12:18:06;;;;;;;0.68;0.68;;;19.20;99.90;;;;;;5071949;28;20209;-75
2021/05/19 12:20:34;;;;;;;3.13;0.82;;;19.10;99.90;;;;;;5071694;28;20207;-75
2021/05/19 12:23:03;;;;;;;1.00;0.40;;;18.60;99.90;;;;;;5071241;28;20209;-75
2021/05/19 12:25:31;;;;;;;0.70;0.70;;;18.90;99.90;;;;;;5071629;28;20210;-74
2021/05/19 12:28:02;;;;;;;1.75;0.45;;;19.20;99.90;;;;;;5071241;28;20203;-74
2021/05/19 12:30:29;;;;;;;0.55;0.50;;;19.20;99.90;;;;;;5071608;28;20658;-73
2021/05/19 12:33:01;;;;;;;0.70;0.57;;;19.40;99.90;;;;;;5071019;28;20623;-73
2021/05/19 12:35:28;;;;;;;1.40;0.77;;;19.00;99.90;;;;;;5071315;28;20304;-73
2021/05/19 12:38:01;;;;;;;1.42;0.85;;;18.70;99.90;;;;;;5070727;28;20251;-73
2021/05/19 12:40:30;;;;;;;1.48;0.70;;;18.10;99.90;;;;;;5071376;28;20666;-73
2021/05/19 12:42:59;;;;;;;2.83;0.77;;;17.80;99.90;;;;;;5071078;28;20210;-74
2021/05/19 12:45:29;;;;;;;0.95;0.70;;;17.80;99.90;;;;;;5071455;28;20233;-73
2021/05/19 12:48:09;;;;;;;1.42;0.75;;;17.70;99.90;;;;;;5070792;28;20217;-73
2021/05/19 12:50:38;;;;;;;7.25;4.50;;;17.90;99.90;;;;;;5070772;28;20209;-73
2021/05/19 12:53:05;;;;;;;2.13;1.50;;;18.50;99.90;;;;;;5070684;28;20578;-74
2021/05/19 12:55:32;;;;;;;2.78;0.80;;;18.30;99.90;;;;;;5070874;28;20609;-74
2021/05/19 12:58:09;;;;;;;0.70;0.60;;;17.90;99.90;;;;;;5071017;28;20279;-74